This is the latest recevied weather packets stored in our database for station/object EA4IAJ-12. If no packets are shown the sender has not sent any weather packets the latest 10 day(s).
| Time | Temp. | Humidity | Pressure | Rain* | Wind** | Luminosity | Snow |
|---|---|---|---|---|---|---|---|
| 1787654174 | 28.89° C | 100% | 1047.9 hPa | - | - | - | - |
| 1787653274 | 27.78° C | 100% | 1045 hPa | - | - | - | - |
| 1787652373 | 26.11° C | 100% | 1035.6 hPa | - | - | - | - |
| 1787650585 | 27.22° C | 100% | 1043.8 hPa | - | - | - | - |
| 1787648783 | 26.11° C | 100% | 1040.8 hPa | - | - | - | - |
| 1787647883 | 26.67° C | 100% | 1042.3 hPa | - | - | - | - |
| 1787646982 | 26.67° C | 100% | 1043.5 hPa | - | - | - | - |
| 1787646082 | 25.56° C | 100% | 1038.7 hPa | - | - | - | - |
| 1787645181 | 24.44° C | 100% | 1033.6 hPa | - | - | - | - |
| 1787644281 | 24.44° C | 100% | 1034 hPa | - | - | - | - |
| 1787643380 | 21.67° C | 100% | 1021 hPa | - | - | - | - |
| 1787642479 | 19.44° C | 100% | 1012.7 hPa | - | - | - | - |
| 1787641579 | 18.89° C | 100% | 1010.5 hPa | - | - | - | - |
| 1787640678 | 18.89° C | 100% | 1008.3 hPa | - | - | - | - |
| 1787639778 | 18.33° C | 100% | 1005.7 hPa | - | - | - | - |
| 1787638878 | 17.78° C | 100% | 1003.1 hPa | - | - | - | - |
| 1787637977 | 17.22° C | 100% | 1000.6 hPa | - | - | - | - |
| 1787637077 | 16.67° C | 100% | 999.6 hPa | - | - | - | - |
| 1787636176 | 16.67° C | 100% | 998.6 hPa | - | - | - | - |
| 1787635275 | 16.67° C | 100% | 999 hPa | - | - | - | - |
| 1787634375 | 17.22° C | 100% | 999.8 hPa | - | - | - | - |
| 1787633474 | 17.22° C | 100% | 999.9 hPa | - | - | - | - |
| 1787632574 | 17.22° C | 100% | 998.8 hPa | - | - | - | - |
| 1787630773 | 17.22° C | 100% | 998.2 hPa | - | - | - | - |
| 1787629258 | 17.78° C | 100% | 999.6 hPa | - | - | - | - |
* Rain since midnight (hover to see other rain measurements)
** Current wind speed in m/s (hover to see current wind gust speed)